createdAt,value
2022-10-27T00:02:35.837Z,29.50
2022-10-27T00:05:41.655Z,26.10
2022-10-27T00:08:47.206Z,24.50
2022-10-27T00:11:52.608Z,25.80
2022-10-27T00:14:58.101Z,24.10
2022-10-27T00:18:08.152Z,24.50
2022-10-27T00:21:16.110Z,21.10
2022-10-27T00:24:22.025Z,22.40
2022-10-27T00:27:28.393Z,22.50
2022-10-27T00:30:33.934Z,23.80
2022-10-27T00:33:39.588Z,23.40
2022-10-27T00:36:45.139Z,22.60
2022-10-27T00:39:50.993Z,19.10
2022-10-27T00:42:56.433Z,23.10
2022-10-27T00:46:06.438Z,22.70
2022-10-27T00:49:15.270Z,29.00
2022-10-27T00:52:26.812Z,26.30
2022-10-27T00:55:35.841Z,22.90
2022-10-27T00:58:42.855Z,22.80
2022-10-27T01:01:50.577Z,22.20
2022-10-27T01:05:01.247Z,23.50
2022-10-27T01:08:08.692Z,26.20
2022-10-27T01:11:14.282Z,23.70
2022-10-27T01:14:19.764Z,23.60
2022-10-27T01:17:40.131Z,23.50
2022-10-27T01:21:04.328Z,24.90
2022-10-27T01:24:35.521Z,27.30
2022-10-27T01:28:19.981Z,24.70
2022-10-27T01:31:29.257Z,23.40
2022-10-27T01:34:42.139Z,23.90
2022-10-27T01:37:53.685Z,21.90
2022-10-27T01:41:03.926Z,21.70
2022-10-27T01:44:16.553Z,22.20
2022-10-27T01:47:24.101Z,21.60
2022-10-27T01:50:45.449Z,24.00
2022-10-27T01:54:00.594Z,21.90
2022-10-27T01:57:18.332Z,18.90
2022-10-27T02:00:23.982Z,19.90
2022-10-27T02:03:36.661Z,20.70
2022-10-27T02:06:50.135Z,17.60
2022-10-27T02:10:00.599Z,18.90
2022-10-27T02:13:06.893Z,21.50
2022-10-27T02:19:23.948Z,24.90
2022-10-27T02:22:33.168Z,19.60
2022-10-27T02:25:46.266Z,21.60
2022-10-27T02:28:57.261Z,21.60
2022-10-27T02:32:06.441Z,22.60
2022-10-27T02:35:13.859Z,22.10
2022-10-27T02:38:19.524Z,20.90
2022-10-27T02:41:25.050Z,22.80
2022-10-27T02:44:30.519Z,22.00
2022-10-27T02:47:36.068Z,20.90
2022-10-27T02:50:41.637Z,23.30
2022-10-27T02:53:47.168Z,20.40
2022-10-27T02:56:52.819Z,19.80
2022-10-27T02:59:58.268Z,21.00
2022-10-27T03:03:03.917Z,22.10
2022-10-27T03:06:09.557Z,21.30
2022-10-27T03:09:15.120Z,19.70
2022-10-27T03:12:20.565Z,21.30
2022-10-27T03:15:26.116Z,19.50
2022-10-27T03:18:31.562Z,17.90
2022-10-27T03:21:37.010Z,18.80
2022-10-27T03:24:42.504Z,21.30
2022-10-27T03:27:48.006Z,16.00
2022-10-27T03:30:53.759Z,19.30
2022-10-27T03:33:59.167Z,19.10
2022-10-27T03:37:04.654Z,19.10
2022-10-27T03:40:12.742Z,18.20
2022-10-27T03:43:18.314Z,18.60
2022-10-27T03:46:23.761Z,18.00
2022-10-27T03:49:29.335Z,21.10
2022-10-27T03:52:34.960Z,19.30
2022-10-27T03:55:40.407Z,19.10
2022-10-27T03:58:45.956Z,20.00
2022-10-27T04:01:51.788Z,15.50
2022-10-27T04:05:00.046Z,17.80
2022-10-27T04:08:05.664Z,17.30
2022-10-27T04:11:11.126Z,21.10
2022-10-27T04:14:16.557Z,18.00
2022-10-27T04:17:22.121Z,17.00
2022-10-27T04:20:28.697Z,16.50
2022-10-27T04:23:34.345Z,19.70
2022-10-27T04:26:39.793Z,18.40
2022-10-27T04:29:45.205Z,17.20
2022-10-27T04:32:54.592Z,15.10
2022-10-27T04:36:00.885Z,18.80
2022-10-27T04:42:11.741Z,15.60
2022-10-27T04:45:17.948Z,15.50
2022-10-27T04:48:23.451Z,18.90
2022-10-27T04:51:28.942Z,17.80
2022-10-27T04:54:34.550Z,16.60
2022-10-27T04:57:39.960Z,16.40
2022-10-27T05:00:45.397Z,18.30
2022-10-27T05:03:51.128Z,16.40
2022-10-27T05:06:56.544Z,15.20
2022-10-27T05:10:01.954Z,16.60
2022-10-27T05:13:07.406Z,15.50
2022-10-27T05:16:12.883Z,16.50
2022-10-27T05:19:18.332Z,16.20
2022-10-27T05:22:23.732Z,15.70
2022-10-27T05:25:29.315Z,15.30
2022-10-27T05:28:35.084Z,15.60
2022-10-27T05:31:40.508Z,14.30
2022-10-27T05:34:46.080Z,19.30
2022-10-27T05:37:51.969Z,20.60
2022-10-27T05:41:00.965Z,24.10
2022-10-27T05:44:06.677Z,19.50
2022-10-27T05:47:12.474Z,19.60
2022-10-27T05:50:18.208Z,18.10
2022-10-27T05:53:23.930Z,19.00
2022-10-27T05:56:29.431Z,17.40
2022-10-27T05:59:34.878Z,16.00
2022-10-27T06:02:40.310Z,16.10
2022-10-27T06:05:45.873Z,16.40
2022-10-27T06:08:51.297Z,16.90
2022-10-27T06:11:56.754Z,15.90
2022-10-27T06:15:02.315Z,16.10
2022-10-27T06:18:08.069Z,15.30
2022-10-27T06:21:13.776Z,18.30
2022-10-27T06:24:19.164Z,16.80
2022-10-27T06:27:24.718Z,18.70
2022-10-27T06:30:30.168Z,22.00
2022-10-27T06:33:35.714Z,22.70
2022-10-27T06:36:41.160Z,19.30
2022-10-27T06:39:47.428Z,24.70
2022-10-27T06:46:14.277Z,20.30
2022-10-27T06:49:20.052Z,21.50
2022-10-27T06:52:25.812Z,22.60
2022-10-27T06:55:31.718Z,22.20
2022-10-27T06:58:39.522Z,18.70
2022-10-27T07:01:45.105Z,17.00
2022-10-27T07:04:50.665Z,18.30
2022-10-27T07:07:57.482Z,20.70
2022-10-27T07:11:03.094Z,17.30
2022-10-27T07:14:08.747Z,19.80
2022-10-27T07:17:14.200Z,20.30
2022-10-27T07:20:19.641Z,17.70
2022-10-27T07:23:25.073Z,18.60
2022-10-27T07:26:30.841Z,19.80
2022-10-27T07:29:36.289Z,17.00
2022-10-27T07:32:41.837Z,18.80
2022-10-27T07:35:51.101Z,15.60
2022-10-27T07:38:57.017Z,15.70
2022-10-27T07:42:03.195Z,15.90
2022-10-27T07:45:10.489Z,15.10
2022-10-27T07:48:17.624Z,14.90
2022-10-27T07:51:23.326Z,15.60
2022-10-27T07:54:29.721Z,14.60
2022-10-27T07:57:35.244Z,17.90
2022-10-27T08:00:42.638Z,17.80
2022-10-27T08:03:51.111Z,18.90
2022-10-27T08:06:57.012Z,17.80
2022-10-27T08:10:02.971Z,18.20
2022-10-27T08:13:10.000Z,17.30
2022-10-27T08:16:15.605Z,18.10
2022-10-27T08:19:21.377Z,17.20
2022-10-27T08:22:27.056Z,19.40
2022-10-27T08:25:33.193Z,16.60
2022-10-27T08:28:38.615Z,17.60
2022-10-27T08:31:44.024Z,16.80
2022-10-27T08:34:51.593Z,18.20
2022-10-27T08:38:02.597Z,16.60
2022-10-27T08:41:21.150Z,19.40
2022-10-27T08:44:33.095Z,17.20
2022-10-27T08:47:38.850Z,19.00
2022-10-27T08:50:46.060Z,14.80
2022-10-27T08:53:55.133Z,13.50
2022-10-27T08:57:04.510Z,12.90
2022-10-27T09:00:15.399Z,15.10
2022-10-27T09:03:37.832Z,15.40
2022-10-27T09:06:57.564Z,11.40
2022-10-27T09:10:07.359Z,11.40
2022-10-27T09:13:27.172Z,11.30
2022-10-27T09:16:39.972Z,10.50
2022-10-27T09:19:49.709Z,10.10
2022-10-27T09:22:57.409Z,13.20
2022-10-27T09:26:02.896Z,12.50
2022-10-27T09:29:17.519Z,9.90
2022-10-27T09:32:27.472Z,12.40
2022-10-27T09:35:32.919Z,11.80
2022-10-27T09:38:38.688Z,12.70
2022-10-27T09:41:44.428Z,10.00
2022-10-27T09:44:55.612Z,7.50
2022-10-27T09:48:07.448Z,9.50
2022-10-27T09:51:20.429Z,10.20
2022-10-27T09:54:34.161Z,8.90
2022-10-27T09:57:42.179Z,10.60
2022-10-27T10:00:56.538Z,8.70
2022-10-27T10:04:17.085Z,8.20
2022-10-27T10:07:40.367Z,9.00
2022-10-27T10:10:57.222Z,8.50
2022-10-27T10:14:04.151Z,9.40
2022-10-27T10:17:27.759Z,8.70
2022-10-27T10:20:39.565Z,9.10
2022-10-27T10:23:54.238Z,11.70
2022-10-27T10:27:01.932Z,10.70
2022-10-27T10:30:19.198Z,9.30
2022-10-27T10:33:27.470Z,8.30
2022-10-27T10:36:38.558Z,8.80
2022-10-27T10:39:44.098Z,12.00
2022-10-27T10:43:01.319Z,9.00
2022-10-27T10:46:08.514Z,9.70
2022-10-27T10:49:23.345Z,8.30
2022-10-27T10:52:34.875Z,10.30
2022-10-27T10:55:41.130Z,9.00
2022-10-27T10:58:47.508Z,7.80
2022-10-27T11:01:57.502Z,8.10
2022-10-27T11:05:15.650Z,9.50
2022-10-27T11:08:24.359Z,9.50
2022-10-27T11:11:37.554Z,10.40
2022-10-27T11:14:46.706Z,8.80
2022-10-27T11:17:57.661Z,9.40
2022-10-27T11:21:08.656Z,8.60
2022-10-27T11:24:21.461Z,8.80
2022-10-27T11:27:33.881Z,9.80
2022-10-27T11:30:47.101Z,10.10
2022-10-27T11:33:58.995Z,9.00
2022-10-27T11:37:08.642Z,7.60
2022-10-27T11:40:23.419Z,9.80
2022-10-27T11:43:34.661Z,9.40
2022-10-27T11:46:44.614Z,8.30
2022-10-27T11:49:55.214Z,7.90
2022-10-27T11:53:02.088Z,8.00
2022-10-27T11:56:21.583Z,11.00
2022-10-27T11:59:38.998Z,7.70
2022-10-27T12:03:09.130Z,8.50
2022-10-27T12:06:22.767Z,8.60
2022-10-27T12:09:40.902Z,9.90
2022-10-27T12:12:49.078Z,9.70
2022-10-27T12:16:00.504Z,9.80
2022-10-27T12:19:11.787Z,10.30
2022-10-27T12:22:23.584Z,9.50
2022-10-27T12:25:34.418Z,8.50
2022-10-27T12:28:40.301Z,10.00
2022-10-27T12:34:59.460Z,9.60
2022-10-27T12:38:13.142Z,10.50
2022-10-27T12:41:29.035Z,9.30
2022-10-27T12:44:46.210Z,10.30
2022-10-27T12:48:01.677Z,9.20
2022-10-27T12:51:23.465Z,10.30
2022-10-27T12:58:02.932Z,9.70
2022-10-27T13:01:15.632Z,8.80
2022-10-27T13:04:45.470Z,8.80
2022-10-27T13:08:15.389Z,7.90
2022-10-27T13:11:35.065Z,8.40
2022-10-27T13:15:17.686Z,8.60
2022-10-27T13:18:58.474Z,12.10
2022-10-27T13:22:12.572Z,13.00
2022-10-27T13:25:22.706Z,13.00
2022-10-27T13:28:34.363Z,14.50
2022-10-27T13:31:40.316Z,12.50
2022-10-27T13:38:10.771Z,14.60
2022-10-27T13:42:07.583Z,17.40
2022-10-27T13:45:43.893Z,12.60
2022-10-27T13:48:53.353Z,11.90
2022-10-27T13:55:37.957Z,12.20
2022-10-27T13:58:57.705Z,19.10
2022-10-27T14:02:10.943Z,19.60
2022-10-27T14:05:26.802Z,18.90
2022-10-27T14:11:37.619Z,15.00
2022-10-27T14:14:43.785Z,18.20
2022-10-27T14:17:50.861Z,18.40
2022-10-27T14:21:00.470Z,24.90
2022-10-27T14:24:11.486Z,34.60
2022-10-27T14:27:18.881Z,53.80
2022-10-27T14:30:25.129Z,50.70
2022-10-27T14:33:30.694Z,56.80
2022-10-27T14:36:38.289Z,51.40
2022-10-27T14:39:44.155Z,43.90
2022-10-27T14:42:50.973Z,31.50
2022-10-27T14:46:01.288Z,23.20
2022-10-27T14:49:10.664Z,17.90
2022-10-27T14:52:21.503Z,26.40
2022-10-27T14:55:33.707Z,70.90
2022-10-27T14:58:39.255Z,69.90
2022-10-27T15:01:45.692Z,38.80
2022-10-27T15:04:51.273Z,35.60
2022-10-27T15:07:59.792Z,25.90
2022-10-27T15:11:08.675Z,151.30
2022-10-27T15:14:14.170Z,191.10
2022-10-27T15:17:24.633Z,231.40
2022-10-27T15:20:30.287Z,220.50
2022-10-27T15:23:36.577Z,97.50
2022-10-27T15:26:42.445Z,43.80
2022-10-27T15:29:52.396Z,28.70
2022-10-27T15:32:57.910Z,30.70
2022-10-27T15:36:20.193Z,35.20
2022-10-27T15:39:26.319Z,15.40
2022-10-27T15:42:39.368Z,23.40
2022-10-27T15:45:45.857Z,16.90
2022-10-27T15:48:57.207Z,11.00
2022-10-27T15:52:07.823Z,9.50
2022-10-27T15:55:24.918Z,10.10
2022-10-27T15:58:32.904Z,8.90
2022-10-27T16:01:38.781Z,10.40
2022-10-27T16:07:55.346Z,12.80
2022-10-27T16:11:01.030Z,12.30
2022-10-27T16:14:12.160Z,16.40
2022-10-27T16:17:20.662Z,17.50
2022-10-27T16:20:29.158Z,15.20
2022-10-27T16:23:34.698Z,15.50
2022-10-27T16:26:40.441Z,15.90
2022-10-27T16:29:45.990Z,16.80
2022-10-27T16:32:57.694Z,16.30
2022-10-27T16:36:03.082Z,14.70
2022-10-27T16:39:08.589Z,14.30
2022-10-27T16:42:14.311Z,15.10
2022-10-27T16:45:21.560Z,15.10
2022-10-27T16:48:27.185Z,15.30
2022-10-27T16:51:32.650Z,13.60
2022-10-27T16:54:39.103Z,15.70
2022-10-27T16:57:47.243Z,18.30
2022-10-27T17:00:55.151Z,17.60
2022-10-27T17:04:04.401Z,19.30
2022-10-27T17:07:10.005Z,17.50
2022-10-27T17:10:16.979Z,31.40
2022-10-27T17:13:22.648Z,40.10
2022-10-27T17:16:28.073Z,49.30
2022-10-27T17:19:33.622Z,41.20
2022-10-27T17:22:39.594Z,33.60
2022-10-27T17:25:45.043Z,29.80
2022-10-27T17:28:52.281Z,29.80
2022-10-27T17:31:57.735Z,27.20
2022-10-27T17:35:03.226Z,26.90
2022-10-27T17:38:08.674Z,22.80
2022-10-27T17:41:14.222Z,27.90
2022-10-27T17:44:19.772Z,24.90
2022-10-27T17:47:25.562Z,26.00
2022-10-27T17:50:32.646Z,32.40
2022-10-27T17:53:39.433Z,32.80
2022-10-27T17:56:44.859Z,33.50
2022-10-27T17:59:50.386Z,33.40
2022-10-27T18:02:55.974Z,30.60
2022-10-27T18:06:03.946Z,34.20
2022-10-27T18:09:11.082Z,33.30
2022-10-27T18:12:16.578Z,30.90
2022-10-27T18:15:35.582Z,29.60
2022-10-27T18:18:42.364Z,29.00
2022-10-27T18:21:49.503Z,44.20
2022-10-27T18:24:54.950Z,35.60
2022-10-27T18:28:00.720Z,35.10
2022-10-27T18:31:11.304Z,47.60
2022-10-27T18:34:17.065Z,36.20
2022-10-27T18:37:22.581Z,30.50
2022-10-27T18:40:28.131Z,26.10
2022-10-27T18:43:33.934Z,26.70
2022-10-27T18:46:39.435Z,23.30
2022-10-27T18:49:48.795Z,24.90
2022-10-27T18:52:55.032Z,25.20
2022-10-27T18:56:02.965Z,23.00
2022-10-27T18:59:08.435Z,28.40
2022-10-27T19:02:14.186Z,29.70
2022-10-27T19:05:19.770Z,28.50
2022-10-27T19:08:25.756Z,34.10
2022-10-27T19:11:31.752Z,31.20
2022-10-27T19:14:37.192Z,33.00
2022-10-27T19:17:43.121Z,31.10
2022-10-27T19:20:48.672Z,28.60
2022-10-27T19:23:58.112Z,30.90
2022-10-27T19:27:03.655Z,33.20
2022-10-27T19:30:11.311Z,36.20
2022-10-27T19:33:16.807Z,31.20
2022-10-27T19:36:24.450Z,32.80
2022-10-27T19:39:29.886Z,35.20
2022-10-27T19:42:36.673Z,33.50
2022-10-27T19:45:49.412Z,32.50
2022-10-27T19:48:56.481Z,29.60
2022-10-27T19:52:01.983Z,23.20
2022-10-27T19:55:08.717Z,22.90
2022-10-27T19:58:14.112Z,20.20
2022-10-27T20:01:22.043Z,18.30
2022-10-27T20:04:27.767Z,22.30
2022-10-27T20:07:33.212Z,22.20
2022-10-27T20:10:41.937Z,20.20
2022-10-27T20:13:48.724Z,20.90
2022-10-27T20:16:54.264Z,22.00
2022-10-27T20:19:59.916Z,20.30
2022-10-27T20:23:06.080Z,23.30
2022-10-27T20:26:29.984Z,22.40
2022-10-27T20:29:36.004Z,22.90
2022-10-27T20:32:43.689Z,21.20
2022-10-27T20:35:49.782Z,20.60
2022-10-27T20:38:56.662Z,22.60
2022-10-27T20:42:02.064Z,22.40
2022-10-27T20:45:09.095Z,21.20
2022-10-27T20:48:14.540Z,22.60
2022-10-27T20:51:21.601Z,20.40
2022-10-27T20:54:27.162Z,24.40
2022-10-27T20:57:32.725Z,27.00
2022-10-27T21:00:38.168Z,29.50
2022-10-27T21:03:43.605Z,24.40
2022-10-27T21:06:52.239Z,26.20
2022-10-27T21:09:57.690Z,26.10
2022-10-27T21:13:03.122Z,32.00
2022-10-27T21:16:09.521Z,32.60
2022-10-27T21:19:14.951Z,28.70
2022-10-27T21:22:20.601Z,29.60
2022-10-27T21:25:27.594Z,30.60
2022-10-27T21:28:33.025Z,30.20
2022-10-27T21:31:38.468Z,29.70
2022-10-27T21:34:43.896Z,27.40
2022-10-27T21:37:49.828Z,28.90
2022-10-27T21:40:58.630Z,33.30
2022-10-27T21:44:04.083Z,32.70
2022-10-27T21:47:09.503Z,36.20
2022-10-27T21:50:14.930Z,31.10
2022-10-27T21:53:20.972Z,31.00
2022-10-27T21:56:26.853Z,28.10
2022-10-27T21:59:32.519Z,28.50
2022-10-27T22:02:37.966Z,32.00
2022-10-27T22:05:43.969Z,28.50
2022-10-27T22:08:50.513Z,26.90
2022-10-27T22:11:56.014Z,27.00
2022-10-27T22:15:01.445Z,31.50
2022-10-27T22:18:06.953Z,30.30
2022-10-27T22:21:15.612Z,36.50
2022-10-27T22:24:21.113Z,32.80
2022-10-27T22:27:26.538Z,35.90
2022-10-27T22:30:31.985Z,39.80
2022-10-27T22:33:41.827Z,38.20
2022-10-27T22:36:51.122Z,35.80
2022-10-27T22:39:57.684Z,39.00
2022-10-27T22:43:03.122Z,40.50
2022-10-27T22:46:11.483Z,42.20
2022-10-27T22:49:16.978Z,44.60
2022-10-27T22:52:22.427Z,47.80
2022-10-27T22:55:27.975Z,39.80
2022-10-27T22:58:33.653Z,40.20
2022-10-27T23:01:40.812Z,37.20
2022-10-27T23:04:46.468Z,50.00
2022-10-27T23:07:52.015Z,47.30
2022-10-27T23:10:58.725Z,39.40
2022-10-27T23:14:04.572Z,27.90
2022-10-27T23:17:11.534Z,26.10
2022-10-27T23:20:17.284Z,22.40
2022-10-27T23:23:22.732Z,25.50
2022-10-27T23:26:30.036Z,33.20
2022-10-27T23:29:35.556Z,27.50
2022-10-27T23:32:40.944Z,24.60
2022-10-27T23:35:55.730Z,40.70
2022-10-27T23:39:01.337Z,43.60
2022-10-27T23:42:07.201Z,39.90
2022-10-27T23:45:13.378Z,30.30
2022-10-27T23:48:18.905Z,27.10
2022-10-27T23:51:25.239Z,24.20
2022-10-27T23:54:30.719Z,22.90
2022-10-27T23:57:36.166Z,20.90
